Terminal Aerodrome Forecast
Issued by NWS

Home | Current Version | Previous Version | Text Only | Print | Product List | Glossary On
Versions: 1 2 3 4 5 6 7 8 9 10 11 12 13 14 15 16
000
FTUS43 KICT 172325
TAFSLN
TAF
KSLN 172325Z 1800/1824 32008KT P6SM SCT030 SCT250
     FM180800 23004KT P6SM FEW250
     FM181800 22010G16KT P6SM FEW250=

USA.gov is the U.S. government's official web portal to all federal, state and local government web resources and services.